Terminal Aerodrome Forecast
Issued by NWS Charleston, WV

Current Version | Previous Version | Graphics & Text | Print | Product List | Glossary On
Versions: 1 2 3 4 5 6 7 8 9 10 11 12 13 14 15 16 17 18 19 20 21 22 23 24 25 26 27 28
000
FTUS41 KRLX 191100
TAFHTS
TAF
KHTS 191120Z 1912/2012 00000KT 1/2SM FG BKN002
      TEMPO 1912/1914 5SM BR BKN008
     FM191400 00000KT 5SM BR BKN100
     FM191700 00000KT P6SM BKN060
     FM191900 VRB03KT P6SM VCTS BKN035CB
     FM200600 00000KT 6SM SHRA BR VCTS BKN040CB
     FM200900 00000KT 3SM SHRA BR VCTS BKN040CB
     FM201100 VRB03KT 2SM BR VCTS BKN040CB=

USA.gov is the U.S. government's official web portal to all federal, state and local government web resources and services.